createdAt,value
2022-07-29T00:00:56.166Z,97.88
2022-07-29T00:02:57.967Z,98.22
2022-07-29T00:05:00.140Z,97.78
2022-07-29T00:07:02.140Z,98.35
2022-07-29T00:09:03.999Z,98.52
2022-07-29T00:11:05.775Z,99.63
2022-07-29T00:13:07.815Z,99.46
2022-07-29T00:15:09.735Z,99.41
2022-07-29T00:17:11.436Z,100.00
2022-07-29T00:19:13.330Z,100.00
2022-07-29T00:21:15.094Z,100.00
2022-07-29T00:23:16.823Z,100.00
2022-07-29T00:25:18.878Z,100.00
2022-07-29T00:27:20.606Z,100.00
2022-07-29T00:29:37.633Z,100.00
2022-07-29T00:31:39.675Z,100.00
2022-07-29T00:33:41.433Z,100.00
2022-07-29T00:35:43.221Z,100.00
2022-07-29T00:37:45.101Z,100.00
2022-07-29T00:39:46.859Z,100.00
2022-07-29T00:41:48.766Z,100.00
2022-07-29T00:43:50.848Z,100.00
2022-07-29T00:45:52.633Z,100.00
2022-07-29T00:47:54.416Z,100.00
2022-07-29T00:49:56.402Z,100.00
2022-07-29T00:51:58.635Z,100.00
2022-07-29T00:54:00.451Z,100.00
2022-07-29T00:56:02.485Z,100.00
2022-07-29T00:58:04.715Z,100.00
2022-07-29T01:00:08.740Z,100.00
2022-07-29T01:02:11.078Z,100.00
2022-07-29T01:04:13.234Z,100.00
2022-07-29T01:06:19.166Z,100.00
2022-07-29T01:08:21.996Z,100.00
2022-07-29T01:10:24.613Z,100.00
2022-07-29T01:12:28.258Z,100.00
2022-07-29T01:14:30.336Z,100.00
2022-07-29T01:16:35.012Z,100.00
2022-07-29T01:18:43.310Z,100.00
2022-07-29T01:21:04.016Z,100.00
2022-07-29T01:23:12.342Z,100.00
2022-07-29T01:25:29.415Z,100.00
2022-07-29T01:27:48.857Z,100.00
2022-07-29T01:29:56.397Z,100.00
2022-07-29T01:32:08.392Z,100.00
2022-07-29T01:34:31.142Z,100.00
2022-07-29T01:36:46.574Z,100.00
2022-07-29T01:38:57.768Z,100.00
2022-07-29T01:41:17.944Z,100.00
2022-07-29T01:43:32.386Z,100.00
2022-07-29T01:45:42.913Z,100.00
2022-07-29T01:48:15.988Z,100.00
2022-07-29T01:50:21.678Z,100.00
2022-07-29T01:52:40.697Z,100.00
2022-07-29T01:54:52.673Z,100.00
2022-07-29T01:56:57.781Z,100.00
2022-07-29T01:59:00.027Z,100.00
2022-07-29T02:01:04.000Z,100.00
2022-07-29T02:03:08.549Z,100.00
2022-07-29T02:05:11.646Z,100.00
2022-07-29T02:07:19.242Z,100.00
2022-07-29T02:09:23.005Z,100.00
2022-07-29T02:11:24.603Z,100.00
2022-07-29T02:13:28.969Z,100.00
2022-07-29T02:15:34.057Z,100.00
2022-07-29T02:17:43.507Z,100.00
2022-07-29T02:19:46.945Z,100.00
2022-07-29T02:21:50.079Z,100.00
2022-07-29T02:23:53.475Z,100.00
2022-07-29T02:25:57.966Z,100.00
2022-07-29T02:28:00.758Z,100.00
2022-07-29T02:30:05.041Z,100.00
2022-07-29T02:32:11.692Z,100.00
2022-07-29T02:34:16.305Z,100.00
2022-07-29T02:36:24.483Z,100.00
2022-07-29T02:38:28.340Z,100.00
2022-07-29T02:40:30.206Z,100.00
2022-07-29T02:42:33.372Z,100.00
2022-07-29T02:44:35.918Z,100.00
2022-07-29T02:46:42.851Z,100.00
2022-07-29T02:49:05.362Z,100.00
2022-07-29T02:51:13.270Z,100.00
2022-07-29T02:53:36.564Z,100.00
2022-07-29T02:56:00.066Z,100.00
2022-07-29T02:58:14.592Z,100.00
2022-07-29T03:00:17.135Z,100.00
2022-07-29T03:02:20.560Z,100.00
2022-07-29T03:04:24.698Z,100.00
2022-07-29T03:06:38.020Z,100.00
2022-07-29T03:08:41.205Z,100.00
2022-07-29T03:10:46.492Z,100.00
2022-07-29T03:12:49.743Z,100.00
2022-07-29T03:14:52.533Z,100.00
2022-07-29T03:16:55.052Z,100.00
2022-07-29T03:18:57.554Z,100.00
2022-07-29T03:20:59.642Z,100.00
2022-07-29T03:23:01.608Z,100.00
2022-07-29T03:25:13.905Z,100.00
2022-07-29T03:27:15.720Z,100.00
2022-07-29T03:29:17.934Z,100.00
2022-07-29T03:31:21.837Z,100.00
2022-07-29T03:33:23.633Z,100.00
2022-07-29T03:35:25.737Z,100.00
2022-07-29T03:37:27.512Z,100.00
2022-07-29T03:39:34.287Z,100.00
2022-07-29T03:41:39.092Z,100.00
2022-07-29T03:43:49.615Z,100.00
2022-07-29T03:45:55.540Z,100.00
2022-07-29T03:48:06.710Z,100.00
2022-07-29T03:50:11.589Z,100.00
2022-07-29T03:52:13.688Z,100.00
2022-07-29T03:54:16.122Z,100.00
2022-07-29T03:56:22.039Z,100.00
2022-07-29T03:58:26.293Z,100.00
2022-07-29T04:00:28.920Z,100.00
2022-07-29T04:02:31.507Z,100.00
2022-07-29T04:04:36.865Z,100.00
2022-07-29T04:06:48.348Z,100.00
2022-07-29T04:08:50.257Z,100.00
2022-07-29T04:10:52.067Z,100.00
2022-07-29T04:12:54.121Z,100.00
2022-07-29T04:14:55.857Z,100.00
2022-07-29T04:16:57.651Z,100.00
2022-07-29T04:19:00.334Z,100.00
2022-07-29T04:21:02.226Z,100.00
2022-07-29T04:23:04.014Z,100.00
2022-07-29T04:25:06.484Z,100.00
2022-07-29T04:27:08.244Z,100.00
2022-07-29T04:29:10.324Z,100.00
2022-07-29T04:31:12.926Z,100.00
2022-07-29T04:33:14.722Z,100.00
2022-07-29T04:35:16.440Z,100.00
2022-07-29T04:37:18.531Z,100.00
2022-07-29T04:39:22.956Z,100.00
2022-07-29T04:41:32.655Z,100.00
2022-07-29T04:43:37.038Z,100.00
2022-07-29T04:45:38.715Z,100.00
2022-07-29T04:47:40.504Z,100.00
2022-07-29T04:49:42.785Z,100.00
2022-07-29T04:51:44.627Z,100.00
2022-07-29T04:53:46.323Z,100.00
2022-07-29T04:55:48.346Z,100.00
2022-07-29T04:57:50.379Z,99.98
2022-07-29T04:59:52.089Z,100.00
2022-07-29T05:01:54.092Z,100.00
2022-07-29T05:04:00.148Z,100.00
2022-07-29T05:06:02.346Z,100.00
2022-07-29T05:08:04.687Z,100.00
2022-07-29T05:10:06.729Z,100.00
2022-07-29T05:12:08.750Z,100.00
2022-07-29T05:14:10.998Z,98.45
2022-07-29T05:16:13.098Z,97.25
2022-07-29T05:18:14.894Z,96.81
2022-07-29T05:20:16.894Z,95.38
2022-07-29T05:22:20.334Z,94.50
2022-07-29T05:24:22.071Z,92.79
2022-07-29T05:26:23.958Z,92.06
2022-07-29T05:28:25.759Z,92.64
2022-07-29T05:30:27.492Z,90.90
2022-07-29T05:32:29.479Z,91.59
2022-07-29T05:34:31.471Z,90.61
2022-07-29T05:36:33.193Z,89.82
2022-07-29T05:38:36.356Z,89.32
2022-07-29T05:40:38.184Z,89.45
2022-07-29T05:42:39.958Z,89.16
2022-07-29T05:44:41.910Z,86.84
2022-07-29T05:46:43.937Z,85.96
2022-07-29T05:48:46.628Z,84.98
2022-07-29T05:50:48.653Z,86.19
2022-07-29T05:52:50.397Z,83.56
2022-07-29T05:54:52.191Z,82.17
2022-07-29T05:56:54.125Z,84.51
2022-07-29T05:58:55.981Z,82.98
2022-07-29T06:00:57.726Z,81.35
2022-07-29T06:02:59.744Z,78.84
2022-07-29T06:05:01.699Z,80.02
2022-07-29T06:07:03.882Z,80.53
2022-07-29T06:09:12.126Z,78.53
2022-07-29T06:11:14.884Z,76.85
2022-07-29T06:13:16.635Z,76.66
2022-07-29T06:15:18.499Z,74.75
2022-07-29T06:17:20.341Z,73.76
2022-07-29T06:19:22.227Z,71.93
2022-07-29T06:21:24.118Z,69.29
2022-07-29T06:23:25.965Z,68.65
2022-07-29T06:25:28.575Z,67.67
2022-07-29T06:27:30.474Z,64.57
2022-07-29T06:29:32.449Z,61.19
2022-07-29T06:31:34.215Z,61.11
2022-07-29T06:33:36.151Z,59.04
2022-07-29T06:35:41.769Z,58.56
2022-07-29T06:37:44.329Z,57.88
2022-07-29T06:39:48.469Z,56.79
2022-07-29T06:41:51.264Z,59.17
2022-07-29T06:43:55.338Z,59.01
2022-07-29T06:46:09.342Z,59.44
2022-07-29T06:48:11.329Z,58.39
2022-07-29T06:50:13.095Z,58.44
2022-07-29T06:52:15.030Z,57.48
2022-07-29T06:54:17.407Z,55.09
2022-07-29T06:56:19.284Z,56.57
2022-07-29T06:58:21.186Z,54.96
2022-07-29T07:00:23.453Z,56.66
2022-07-29T07:02:25.413Z,56.79
2022-07-29T07:04:27.418Z,56.87
2022-07-29T07:06:29.293Z,55.68
2022-07-29T07:08:31.092Z,55.28
2022-07-29T07:10:33.867Z,56.97
2022-07-29T07:12:35.896Z,56.65
2022-07-29T07:14:37.664Z,55.07
2022-07-29T07:16:39.771Z,53.38
2022-07-29T07:18:41.679Z,53.31
2022-07-29T07:20:43.561Z,55.92
2022-07-29T07:22:45.382Z,54.03
2022-07-29T07:24:47.301Z,52.25
2022-07-29T07:26:49.032Z,50.84
2022-07-29T07:28:51.016Z,51.22
2022-07-29T07:30:53.346Z,49.63
2022-07-29T07:32:56.035Z,49.53
2022-07-29T07:34:57.841Z,51.14
2022-07-29T07:37:00.972Z,52.47
2022-07-29T07:39:02.892Z,50.20
2022-07-29T07:41:05.499Z,51.88
2022-07-29T07:43:07.381Z,51.87
2022-07-29T07:45:15.839Z,51.83
2022-07-29T07:47:18.871Z,51.20
2022-07-29T07:49:20.864Z,51.87
2022-07-29T07:51:22.610Z,52.80
2022-07-29T07:53:24.429Z,51.78
2022-07-29T07:55:27.171Z,50.52
2022-07-29T07:57:28.918Z,50.95
2022-07-29T07:59:31.382Z,50.68
2022-07-29T08:01:49.976Z,48.95
2022-07-29T08:03:54.975Z,47.96
2022-07-29T08:05:56.862Z,46.85
2022-07-29T08:07:58.644Z,46.20
2022-07-29T08:10:00.448Z,46.79
2022-07-29T08:12:02.708Z,47.96
2022-07-29T08:14:04.521Z,49.31
2022-07-29T08:16:06.880Z,48.15
2022-07-29T08:18:09.075Z,48.65
2022-07-29T08:20:11.262Z,49.29
2022-07-29T08:22:12.997Z,49.37
2022-07-29T08:24:14.741Z,48.48
2022-07-29T08:26:16.699Z,47.92
2022-07-29T08:28:18.720Z,47.88
2022-07-29T08:30:20.496Z,48.63
2022-07-29T08:32:43.504Z,48.45
2022-07-29T08:34:44.097Z,50.67
2022-07-29T08:36:45.858Z,50.01
2022-07-29T08:38:52.823Z,50.74
2022-07-29T08:40:54.649Z,50.16
2022-07-29T08:42:56.653Z,49.87
2022-07-29T08:44:59.521Z,50.13
2022-07-29T08:47:01.409Z,49.92
2022-07-29T08:49:03.529Z,52.11
2022-07-29T08:51:08.521Z,53.42
2022-07-29T08:53:14.669Z,52.23
2022-07-29T08:55:17.114Z,50.36
2022-07-29T08:57:24.181Z,49.93
2022-07-29T08:59:31.325Z,48.74
2022-07-29T09:01:35.985Z,49.12
2022-07-29T09:03:45.518Z,50.20
2022-07-29T09:05:48.708Z,49.48
2022-07-29T09:07:50.934Z,50.36
2022-07-29T09:09:52.865Z,50.23
2022-07-29T09:11:58.903Z,50.02
2022-07-29T09:14:00.758Z,49.36
2022-07-29T09:16:07.064Z,47.14
2022-07-29T09:18:19.761Z,47.51
2022-07-29T09:20:32.249Z,47.47
2022-07-29T09:22:36.682Z,48.33
2022-07-29T09:24:48.376Z,47.01
2022-07-29T09:26:50.189Z,47.65
2022-07-29T09:28:52.173Z,47.11
2022-07-29T09:30:56.187Z,46.60
2022-07-29T09:32:59.998Z,46.22
2022-07-29T09:35:25.819Z,45.60
2022-07-29T09:37:29.139Z,45.68
2022-07-29T09:39:38.192Z,46.65
2022-07-29T09:41:50.511Z,44.64
2022-07-29T09:43:56.871Z,44.73
2022-07-29T09:46:12.317Z,46.11
2022-07-29T09:48:16.867Z,45.92
2022-07-29T09:50:18.827Z,46.38
2022-07-29T09:52:22.751Z,46.41
2022-07-29T09:54:26.108Z,46.59
2022-07-29T09:56:43.587Z,46.33
2022-07-29T09:58:45.360Z,45.09
2022-07-29T10:00:51.460Z,45.72
2022-07-29T10:03:01.209Z,44.02
2022-07-29T10:05:05.683Z,44.38
2022-07-29T10:07:07.702Z,42.45
2022-07-29T10:09:11.350Z,42.42
2022-07-29T10:11:18.376Z,43.25
2022-07-29T10:13:20.423Z,43.79
2022-07-29T10:15:26.126Z,43.94
2022-07-29T10:17:28.085Z,44.75
2022-07-29T10:19:31.413Z,44.00
2022-07-29T10:21:35.849Z,44.68
2022-07-29T10:23:46.922Z,44.43
2022-07-29T10:25:49.417Z,44.06
2022-07-29T10:27:52.002Z,44.58
2022-07-29T10:29:55.181Z,45.02
2022-07-29T10:32:06.021Z,44.89
2022-07-29T10:34:35.585Z,44.31
2022-07-29T10:37:25.717Z,44.07
2022-07-29T10:39:45.243Z,43.48
2022-07-29T10:42:00.197Z,43.11
2022-07-29T10:44:07.912Z,43.60
2022-07-29T10:46:12.456Z,42.86
2022-07-29T10:48:14.962Z,42.31
2022-07-29T10:50:17.305Z,42.11
2022-07-29T10:52:19.354Z,41.18
2022-07-29T10:54:39.647Z,42.12
2022-07-29T10:56:44.586Z,43.10
2022-07-29T10:59:20.284Z,41.87
2022-07-29T11:01:37.397Z,42.85
2022-07-29T11:03:52.338Z,43.20
2022-07-29T11:05:56.444Z,41.19
2022-07-29T11:10:38.325Z,42.05
2022-07-29T11:12:43.522Z,41.77
2022-07-29T11:15:00.990Z,40.92
2022-07-29T11:17:06.080Z,40.67
2022-07-29T11:19:11.610Z,40.14
2022-07-29T11:21:54.114Z,40.07
2022-07-29T11:24:28.968Z,41.70
2022-07-29T11:26:31.313Z,41.00
2022-07-29T11:28:37.161Z,40.90
2022-07-29T11:30:55.026Z,41.13
2022-07-29T11:32:56.831Z,42.41
2022-07-29T11:35:19.171Z,43.62
2022-07-29T11:37:28.371Z,42.27
2022-07-29T11:39:37.059Z,41.84
2022-07-29T11:41:39.348Z,41.67
2022-07-29T11:46:10.626Z,41.34
2022-07-29T11:48:28.406Z,41.12
2022-07-29T11:50:38.166Z,40.57
2022-07-29T11:52:49.654Z,40.69
2022-07-29T11:54:58.149Z,41.28
2022-07-29T11:57:02.770Z,41.10
2022-07-29T11:59:08.498Z,41.84
2022-07-29T12:01:14.776Z,42.64
2022-07-29T12:05:51.831Z,40.84
2022-07-29T12:07:53.828Z,40.95
2022-07-29T12:09:56.963Z,40.91
2022-07-29T12:12:04.651Z,40.82
2022-07-29T12:14:07.250Z,40.28
2022-07-29T12:16:09.057Z,40.86
2022-07-29T12:18:18.987Z,40.88
2022-07-29T12:20:31.183Z,40.77
2022-07-29T12:22:38.808Z,39.69
2022-07-29T12:24:45.179Z,39.72
2022-07-29T12:26:50.853Z,39.52
2022-07-29T12:28:53.537Z,40.41
2022-07-29T12:30:56.545Z,38.58
2022-07-29T12:32:58.350Z,38.58
2022-07-29T12:35:03.032Z,39.34
2022-07-29T12:37:04.981Z,38.99
2022-07-29T12:39:06.929Z,38.91
2022-07-29T12:41:08.918Z,38.26
2022-07-29T12:43:22.207Z,37.67
2022-07-29T12:45:30.852Z,38.45
2022-07-29T12:47:33.838Z,39.13
2022-07-29T12:49:38.048Z,38.20
2022-07-29T12:51:41.009Z,37.41
2022-07-29T12:53:43.264Z,37.51
2022-07-29T12:55:47.771Z,37.13
2022-07-29T12:57:51.742Z,37.56
2022-07-29T13:00:09.892Z,37.22
2022-07-29T13:02:22.898Z,37.13
2022-07-29T13:04:32.750Z,36.90
2022-07-29T13:06:45.905Z,37.54
2022-07-29T13:09:00.340Z,37.25
2022-07-29T13:11:02.320Z,38.17
2022-07-29T13:13:09.548Z,39.23
2022-07-29T13:15:15.976Z,39.70
2022-07-29T13:17:23.274Z,39.27
2022-07-29T13:19:44.015Z,38.71
2022-07-29T13:21:46.590Z,38.88
2022-07-29T13:23:48.367Z,39.16
2022-07-29T13:25:51.247Z,38.83
2022-07-29T13:27:53.123Z,39.37
2022-07-29T13:29:57.108Z,38.84
2022-07-29T13:31:59.295Z,39.55
2022-07-29T13:34:01.338Z,39.11
2022-07-29T13:36:03.090Z,39.28
2022-07-29T13:38:04.898Z,39.05
2022-07-29T13:40:08.962Z,39.13
2022-07-29T13:42:11.227Z,39.38
2022-07-29T13:44:13.077Z,40.32
2022-07-29T13:46:14.948Z,40.21
2022-07-29T13:48:16.935Z,39.42
2022-07-29T13:50:18.986Z,39.89
2022-07-29T13:52:21.141Z,39.25
2022-07-29T13:54:23.297Z,39.31
2022-07-29T13:56:25.291Z,40.54
2022-07-29T13:58:27.245Z,40.02
2022-07-29T14:00:29.566Z,40.96
2022-07-29T14:02:31.545Z,40.01
2022-07-29T14:04:34.735Z,40.17
2022-07-29T14:06:36.641Z,40.86
2022-07-29T14:08:42.495Z,41.16
2022-07-29T14:10:44.610Z,41.06
2022-07-29T14:12:46.347Z,40.32
2022-07-29T14:14:48.249Z,40.14
2022-07-29T14:16:52.331Z,39.15
2022-07-29T14:18:54.291Z,38.80
2022-07-29T14:20:56.316Z,37.67
2022-07-29T14:22:58.074Z,38.44
2022-07-29T14:25:02.340Z,38.69
2022-07-29T14:27:17.276Z,37.82
2022-07-29T14:29:19.017Z,38.29
2022-07-29T14:31:20.785Z,38.71
2022-07-29T14:33:22.601Z,38.60
2022-07-29T14:35:24.433Z,38.79
2022-07-29T14:37:26.163Z,38.54
2022-07-29T14:39:31.693Z,38.00
2022-07-29T14:41:34.110Z,37.77
2022-07-29T14:43:36.041Z,37.57
2022-07-29T14:45:38.020Z,37.04
2022-07-29T14:47:40.582Z,36.52
2022-07-29T14:49:42.298Z,36.65
2022-07-29T14:51:44.170Z,36.75
2022-07-29T14:53:45.945Z,36.59
2022-07-29T14:55:47.684Z,36.17
2022-07-29T14:57:50.006Z,36.70
2022-07-29T14:59:52.416Z,36.52
2022-07-29T15:01:54.354Z,37.41
2022-07-29T15:03:59.674Z,37.76
2022-07-29T15:06:01.807Z,37.71
2022-07-29T15:08:04.299Z,36.73
2022-07-29T15:10:06.930Z,36.84
2022-07-29T15:12:10.123Z,37.40
2022-07-29T15:14:12.121Z,38.13
2022-07-29T15:16:14.226Z,38.54
2022-07-29T15:18:15.987Z,38.53
2022-07-29T15:20:27.875Z,38.68
2022-07-29T15:22:29.804Z,38.72
2022-07-29T15:24:32.137Z,37.83
2022-07-29T15:26:34.307Z,37.20
2022-07-29T15:28:36.624Z,37.95
2022-07-29T15:30:38.393Z,37.49
2022-07-29T15:32:40.104Z,37.25
2022-07-29T15:34:42.352Z,36.88
2022-07-29T15:36:52.510Z,36.48
2022-07-29T15:38:56.677Z,36.68
2022-07-29T15:40:58.656Z,37.28
2022-07-29T15:43:00.442Z,36.78
2022-07-29T15:45:02.364Z,36.26
2022-07-29T15:47:06.048Z,36.57
2022-07-29T15:49:08.490Z,36.82
2022-07-29T15:51:10.491Z,37.43
2022-07-29T15:53:15.096Z,37.40
2022-07-29T15:55:18.542Z,36.64
2022-07-29T15:57:23.259Z,36.69
2022-07-29T15:59:27.810Z,36.59
2022-07-29T16:01:30.761Z,36.65
2022-07-29T16:03:32.912Z,37.98
2022-07-29T16:05:36.437Z,38.95
2022-07-29T16:07:39.938Z,39.24
2022-07-29T16:09:46.243Z,38.83
2022-07-29T16:11:52.952Z,37.12
2022-07-29T16:13:54.747Z,37.23
2022-07-29T16:16:02.695Z,37.31
2022-07-29T16:18:05.399Z,37.17
2022-07-29T16:20:07.837Z,37.59
2022-07-29T16:22:10.191Z,37.88
2022-07-29T16:24:12.328Z,38.30
2022-07-29T16:26:14.282Z,38.67
2022-07-29T16:28:16.061Z,38.66
2022-07-29T16:30:18.125Z,38.60
2022-07-29T16:32:22.144Z,38.78
2022-07-29T16:34:24.308Z,38.47
2022-07-29T16:36:26.075Z,38.55
2022-07-29T16:38:27.871Z,39.23
2022-07-29T16:40:29.683Z,39.27
2022-07-29T16:42:46.162Z,39.00
2022-07-29T16:44:48.914Z,39.08
2022-07-29T16:46:51.863Z,39.02
2022-07-29T16:48:57.808Z,40.19
2022-07-29T16:50:59.695Z,40.30
2022-07-29T16:53:01.525Z,40.52
2022-07-29T16:55:04.435Z,40.54
2022-07-29T16:57:06.176Z,40.79
2022-07-29T16:59:07.927Z,40.97
2022-07-29T17:01:10.133Z,40.72
2022-07-29T17:03:12.803Z,41.08
2022-07-29T17:05:15.742Z,40.84
2022-07-29T17:07:17.768Z,41.37
2022-07-29T17:09:19.753Z,41.03
2022-07-29T17:11:21.454Z,41.11
2022-07-29T17:13:43.707Z,42.06
2022-07-29T17:15:45.464Z,41.38
2022-07-29T17:17:56.513Z,41.72
2022-07-29T17:19:58.966Z,42.11
2022-07-29T17:22:19.572Z,41.77
2022-07-29T17:24:21.459Z,42.06
2022-07-29T17:26:23.320Z,42.11
2022-07-29T17:28:25.053Z,42.30
2022-07-29T17:30:26.978Z,42.65
2022-07-29T17:32:28.969Z,42.93
2022-07-29T17:34:31.142Z,42.46
2022-07-29T17:36:33.071Z,43.26
2022-07-29T17:38:35.525Z,43.21
2022-07-29T17:40:37.273Z,43.28
2022-07-29T17:42:39.045Z,43.83
2022-07-29T17:44:41.613Z,44.52
2022-07-29T17:46:43.392Z,44.64
2022-07-29T17:48:45.556Z,45.00
2022-07-29T17:50:48.311Z,45.04
2022-07-29T17:52:50.063Z,45.46
2022-07-29T17:54:51.846Z,45.23
2022-07-29T17:56:53.846Z,45.29
2022-07-29T17:58:55.625Z,45.30
2022-07-29T18:00:58.797Z,45.53
2022-07-29T18:03:00.857Z,45.68
2022-07-29T18:05:02.645Z,45.78
2022-07-29T18:07:04.460Z,46.04
2022-07-29T18:09:06.262Z,46.34
2022-07-29T18:11:08.078Z,46.36
2022-07-29T18:13:16.837Z,46.27
2022-07-29T18:15:18.857Z,46.47
2022-07-29T18:17:20.607Z,46.80
2022-07-29T18:19:22.397Z,46.83
2022-07-29T18:21:37.601Z,46.89
2022-07-29T18:23:46.067Z,47.11
2022-07-29T18:25:47.989Z,47.15
2022-07-29T18:27:50.482Z,47.49
2022-07-29T18:29:55.285Z,47.93
2022-07-29T18:31:57.079Z,48.13
2022-07-29T18:34:00.157Z,48.49
2022-07-29T18:36:11.195Z,48.74
2022-07-29T18:38:14.130Z,48.46
2022-07-29T18:40:16.006Z,48.86
2022-07-29T18:42:17.727Z,48.66
2022-07-29T18:44:20.374Z,48.78
2022-07-29T18:46:24.225Z,48.97
2022-07-29T18:48:27.446Z,49.17
2022-07-29T18:50:30.034Z,49.79
2022-07-29T18:52:32.230Z,49.90
2022-07-29T18:54:34.217Z,50.07
2022-07-29T18:56:36.463Z,50.25
2022-07-29T18:58:38.410Z,50.90
2022-07-29T19:00:40.226Z,51.42
2022-07-29T19:02:43.473Z,51.51
2022-07-29T19:04:45.380Z,52.77
2022-07-29T19:06:47.194Z,52.00
2022-07-29T19:08:48.925Z,53.07
2022-07-29T19:10:50.886Z,52.82
2022-07-29T19:12:52.683Z,52.76
2022-07-29T19:14:54.558Z,55.43
2022-07-29T19:16:56.681Z,56.01
2022-07-29T19:18:58.694Z,55.38
2022-07-29T19:21:00.478Z,56.98
2022-07-29T19:23:02.398Z,57.45
2022-07-29T19:25:04.522Z,59.30
2022-07-29T19:27:06.442Z,60.30
2022-07-29T19:29:09.222Z,59.15
2022-07-29T19:31:11.025Z,60.98
2022-07-29T19:33:12.816Z,62.22
2022-07-29T19:35:14.698Z,63.70
2022-07-29T19:37:16.448Z,63.65
2022-07-29T19:39:18.212Z,64.46
2022-07-29T19:41:36.639Z,63.92
2022-07-29T19:43:52.030Z,64.70
2022-07-29T19:45:54.816Z,64.44
2022-07-29T19:48:01.329Z,65.14
2022-07-29T19:50:03.938Z,66.11
2022-07-29T19:52:06.081Z,63.16
2022-07-29T19:54:08.208Z,64.02
2022-07-29T19:56:11.289Z,62.74
2022-07-29T19:58:13.097Z,61.58
2022-07-29T20:00:16.283Z,60.56
2022-07-29T20:02:18.481Z,59.88
2022-07-29T20:04:20.343Z,59.51
2022-07-29T20:06:22.117Z,59.33
2022-07-29T20:08:23.986Z,59.09
2022-07-29T20:10:26.042Z,59.28
2022-07-29T20:12:27.987Z,59.44
2022-07-29T20:14:29.869Z,59.21
2022-07-29T20:16:32.243Z,59.15
2022-07-29T20:18:35.078Z,59.29
2022-07-29T20:20:36.856Z,59.66
2022-07-29T20:22:38.678Z,59.63
2022-07-29T20:24:40.800Z,59.62
2022-07-29T20:26:43.791Z,59.42
2022-07-29T20:28:49.313Z,59.62
2022-07-29T20:30:51.761Z,59.99
2022-07-29T20:32:53.526Z,60.19
2022-07-29T20:34:55.246Z,60.14
2022-07-29T20:36:58.498Z,60.13
2022-07-29T20:39:00.534Z,60.24
2022-07-29T20:41:02.282Z,60.34
2022-07-29T20:43:04.176Z,60.31
2022-07-29T20:45:08.720Z,60.40
2022-07-29T20:47:10.608Z,60.48
2022-07-29T20:49:12.934Z,59.83
2022-07-29T20:51:14.907Z,60.40
2022-07-29T20:53:16.620Z,60.32
2022-07-29T20:55:18.622Z,59.71
2022-07-29T20:57:38.690Z,59.90
2022-07-29T20:59:45.586Z,59.83
2022-07-29T21:01:47.751Z,59.93
2022-07-29T21:03:49.632Z,60.13
2022-07-29T21:05:58.078Z,59.99
2022-07-29T21:07:59.961Z,60.13
2022-07-29T21:10:01.775Z,59.75
2022-07-29T21:12:03.935Z,59.62
2022-07-29T21:14:05.813Z,59.59
2022-07-29T21:16:09.684Z,59.67
2022-07-29T21:18:11.751Z,59.71
2022-07-29T21:20:18.422Z,59.71
2022-07-29T21:22:20.643Z,59.46
2022-07-29T21:24:22.344Z,59.68
2022-07-29T21:26:24.356Z,59.91
2022-07-29T21:28:26.242Z,59.73
2022-07-29T21:30:28.071Z,59.61
2022-07-29T21:32:30.621Z,59.78
2022-07-29T21:34:32.559Z,60.21
2022-07-29T21:36:49.622Z,60.30
2022-07-29T21:38:51.735Z,60.29
2022-07-29T21:40:53.791Z,60.33
2022-07-29T21:42:55.541Z,60.57
2022-07-29T21:44:57.565Z,60.90
2022-07-29T21:46:59.455Z,61.06
2022-07-29T21:49:01.359Z,60.82
2022-07-29T21:51:03.239Z,60.94
2022-07-29T21:53:05.164Z,60.89
2022-07-29T21:55:07.948Z,60.80
2022-07-29T21:57:12.529Z,61.09
2022-07-29T21:59:14.324Z,61.30
2022-07-29T22:01:16.180Z,61.39
2022-07-29T22:03:18.147Z,61.51
2022-07-29T22:05:20.619Z,61.68
2022-07-29T22:07:22.354Z,61.71
2022-07-29T22:09:27.865Z,61.57
2022-07-29T22:11:29.655Z,61.96
2022-07-29T22:13:31.450Z,62.20
2022-07-29T22:15:33.508Z,62.35
2022-07-29T22:17:35.266Z,61.90
2022-07-29T22:19:37.006Z,61.78
2022-07-29T22:21:39.330Z,62.10
2022-07-29T22:23:41.462Z,61.84
2022-07-29T22:25:43.229Z,62.83
2022-07-29T22:27:45.284Z,62.80
2022-07-29T22:29:47.104Z,62.95
2022-07-29T22:31:49.108Z,63.17
2022-07-29T22:33:51.932Z,62.92
2022-07-29T22:35:53.640Z,62.81
2022-07-29T22:37:55.358Z,62.93
2022-07-29T22:39:57.546Z,63.00
2022-07-29T22:41:59.251Z,63.12
2022-07-29T22:44:01.106Z,62.93
2022-07-29T22:46:03.337Z,63.08
2022-07-29T22:48:05.622Z,62.91
2022-07-29T22:50:07.759Z,63.51
2022-07-29T22:52:09.751Z,63.36
2022-07-29T22:54:11.486Z,63.07
2022-07-29T22:56:13.511Z,63.36
2022-07-29T22:58:15.516Z,63.89
2022-07-29T23:00:17.315Z,63.40
2022-07-29T23:02:19.053Z,63.34
2022-07-29T23:04:21.111Z,63.02
2022-07-29T23:06:22.906Z,63.83
2022-07-29T23:08:24.608Z,63.66
2022-07-29T23:10:26.695Z,63.92
2022-07-29T23:12:28.397Z,63.95
2022-07-29T23:14:30.156Z,63.28
2022-07-29T23:16:32.239Z,63.26
2022-07-29T23:18:34.702Z,63.32
2022-07-29T23:20:36.559Z,63.52
2022-07-29T23:22:38.489Z,63.48
2022-07-29T23:24:40.199Z,63.79
2022-07-29T23:26:42.654Z,64.07
2022-07-29T23:28:45.329Z,63.88
2022-07-29T23:30:47.209Z,64.05
2022-07-29T23:32:49.040Z,63.70
2022-07-29T23:34:50.938Z,64.27
2022-07-29T23:36:52.695Z,63.77
2022-07-29T23:38:54.427Z,63.92
2022-07-29T23:40:56.613Z,63.61
2022-07-29T23:42:58.380Z,63.43
2022-07-29T23:45:00.157Z,63.04
2022-07-29T23:47:02.656Z,62.92
2022-07-29T23:49:04.682Z,63.14
2022-07-29T23:51:07.550Z,63.45
2022-07-29T23:53:09.498Z,63.27
2022-07-29T23:55:36.331Z,63.13
2022-07-29T23:57:33.968Z,62.79
2022-07-29T23:59:35.760Z,62.58
